Bilzen, Belgium
Current Conditions -  °F | °C
As of 5:25 PM on Sunday 25 Jan 2015 (Local Time) from EHBK Reporting Station
Light Rain Light Rain  
Wind Chill: 29°   Ceiling: 3400
Heat Index: 36°   Visibility: 2mi
Dew Point: 36°   Wind: 9mph
Humidity: 100%   Direction: 220°SW
Pressure: 30.39"   Gusts: NA
Location:  50.87°N, 5.52°E
Report Text: EHBK 251625Z AUTO 22008KT 3200 -RA FEW005/// BKN034///OVC042/// 02/02 Q1029 R21//2//95 BECMG 4000
Loading
Personal Weather Stations






























Interactive Weather Map New forecast layout! Learn more

10-Day Weather Forecast

Advertisements
Track Severe Weather on mobile